Time;durP1;ratioP1;P1;durP2;ratioP2;P2;SDS_P1;SDS_P2;PMS_P1;PMS_P2;Temp;Humidity;BMP_temperature;BMP_pressure;BME280_temperature;BME280_humidity;BME280_pressure;Samples;Min_cycle;Max_cycle;Signal;HPM_P1;HPM_P2
2023/09/07 00:02:14;;;;;;;0.70;0.70;;;;;;;8.54;76.06;99671.06;6212765;23;20029;-85
2023/09/07 00:04:49;;;;;;;0.70;0.70;;;;;;;8.52;76.14;99678.53;6213831;23;20021;-84
2023/09/07 00:07:16;;;;;;;0.70;0.70;;;;;;;8.47;76.20;99678.34;6213339;23;20047;-83
2023/09/07 00:09:45;;;;;;;0.70;0.70;;;;;;;8.37;76.83;99683.31;6212437;23;20079;-83
2023/09/07 00:12:15;;;;;;;0.70;0.70;;;;;;;8.29;77.47;99678.19;6212809;23;20460;-85
2023/09/07 00:14:42;;;;;;;0.70;0.70;;;;;;;8.33;77.59;99684.78;6211816;23;20048;-84
2023/09/07 00:17:09;;;;;;;0.70;0.70;;;;;;;8.27;78.03;99686.47;6213180;23;20027;-84
2023/09/07 00:19:36;;;;;;;0.70;0.70;;;;;;;8.22;78.12;99684.41;6213137;23;20048;-85
2023/09/07 00:22:04;;;;;;;0.70;0.70;;;;;;;8.31;78.41;99690.38;6213122;23;20024;-83
2023/09/07 00:24:31;;;;;;;0.68;0.68;;;;;;;8.34;78.32;99694.53;6187616;23;20025;-83
2023/09/07 00:26:58;;;;;;;0.60;0.60;;;;;;;8.29;78.35;99691.63;6213361;23;20025;-83
2023/09/07 00:29:26;;;;;;;0.70;0.70;;;;;;;8.25;78.62;99692.06;6213216;23;20464;-83
2023/09/07 00:31:54;;;;;;;0.60;0.60;;;;;;;8.16;78.92;99704.09;6186749;23;20055;-83
2023/09/07 00:34:21;;;;;;;0.70;0.70;;;;;;;8.13;79.39;99703.69;6211796;23;20028;-83
2023/09/07 00:36:48;;;;;;;0.70;0.70;;;;;;;8.09;79.46;99705.16;6186645;23;20112;-84
2023/09/07 00:39:15;;;;;;;0.80;0.80;;;;;;;8.04;79.70;99709.28;6212861;23;20025;-85
2023/09/07 00:41:43;;;;;;;0.70;0.70;;;;;;;8.00;80.02;99709.91;6186663;23;20028;-84
2023/09/07 00:44:10;;;;;;;0.70;0.70;;;;;;;7.99;80.59;99714.47;6161111;23;20087;-83
2023/09/07 00:46:41;;;;;;;0.70;0.70;;;;;;;7.95;80.89;99715.09;6212974;23;20025;-83
2023/09/07 00:49:11;;;;;;;0.70;0.70;;;;;;;7.96;80.98;99716.75;6212627;23;20025;-84
2023/09/07 00:52:19;;;;;;;;;;;;;;;;;;;;;
2023/09/07 00:54:56;;;;;;;0.73;0.73;;;;;;;7.86;81.56;99717.19;6096661;23;20034;-83
2023/09/07 00:57:23;;;;;;;0.60;0.60;;;;;;;7.89;82.12;99721.31;6099946;23;20042;-83
2023/09/07 00:59:50;;;;;;;0.70;0.70;;;;;;;7.82;82.05;99715.94;6081771;23;20022;-84
2023/09/07 01:02:18;;;;;;;0.70;0.70;;;;;;;7.84;82.52;99721.13;6077358;23;20026;-84
2023/09/07 01:04:51;;;;;;;0.70;0.70;;;;;;;7.73;82.81;99720.72;6093291;23;20085;-85
2023/09/07 01:07:24;;;;;;;0.70;0.70;;;;;;;7.75;83.49;99721.34;6069495;23;20619;-84
2023/09/07 01:10:01;;;;;;;0.70;0.70;;;;;;;7.79;83.55;99719.88;6045934;23;20019;-82
2023/09/07 01:12:30;;;;;;;0.73;0.73;;;;;;;7.68;83.84;99723.19;6070097;23;20355;-83
2023/09/07 01:14:58;;;;;;;0.70;0.70;;;;;;;7.62;84.28;99729.41;6091800;23;20085;-84
2023/09/07 01:17:48;;;;;;;0.70;0.70;;;;;;;7.58;84.87;99726.31;6091204;23;20481;-83
2023/09/07 01:20:16;;;;;;;0.70;0.70;;;;;;;7.59;85.24;99740.56;6045162;23;20161;-82
2023/09/07 01:22:45;;;;;;;0.70;0.70;;;;;;;7.52;85.36;99728.97;6072008;23;20082;-82
2023/09/07 01:25:13;;;;;;;0.63;0.63;;;;;;;7.58;86.03;99734.38;6043137;23;20026;-82
2023/09/07 01:27:40;;;;;;;0.70;0.70;;;;;;;7.60;86.21;99742.22;6085263;23;20027;-82
2023/09/07 01:30:08;;;;;;;0.70;0.70;;;;;;;7.54;86.60;99738.50;6077938;23;20027;-82
2023/09/07 01:32:36;;;;;;;0.70;0.70;;;;;;;7.59;87.09;99745.94;6209257;23;20052;-82
2023/09/07 01:35:05;;;;;;;0.70;0.70;;;;;;;7.56;87.29;99740.97;6214658;23;20047;-82
2023/09/07 01:37:32;;;;;;;0.70;0.70;;;;;;;7.52;87.62;99748.63;6162288;23;20024;-81
2023/09/07 01:40:00;;;;;;;0.70;0.70;;;;;;;7.49;87.74;99737.47;6185782;23;20024;-83
2023/09/07 01:42:30;;;;;;;0.65;0.65;;;;;;;7.45;87.93;99742.44;6213829;23;20021;-84
2023/09/07 01:44:57;;;;;;;0.70;0.70;;;;;;;7.36;88.47;99741.78;6215077;23;20035;-83
2023/09/07 01:47:27;;;;;;;0.70;0.70;;;;;;;7.33;88.92;99744.06;6163413;23;20464;-84
2023/09/07 01:49:56;;;;;;;0.60;0.60;;;;;;;7.29;89.52;99743.66;6216775;23;20020;-83
2023/09/07 01:52:26;;;;;;;0.70;0.70;;;;;;;7.33;89.97;99744.88;6190065;23;20094;-83
2023/09/07 01:54:55;;;;;;;0.70;0.70;;;;;;;7.34;90.16;99745.72;6188950;23;20618;-83
2023/09/07 01:57:24;;;;;;;0.70;0.70;;;;;;;7.27;90.20;99744.91;6213317;23;20016;-83
2023/09/07 01:59:54;;;;;;;0.70;0.70;;;;;;;7.26;90.71;99757.47;6188798;23;20107;-84
2023/09/07 02:02:21;;;;;;;0.70;0.70;;;;;;;7.25;91.46;99753.16;6187907;23;20456;-82
2023/09/07 02:04:48;;;;;;;0.70;0.70;;;;;;;7.27;91.38;99758.31;6214611;23;20032;-82
2023/09/07 02:07:15;;;;;;;0.70;0.70;;;;;;;7.23;91.44;99759.75;6214287;23;20031;-82
2023/09/07 02:09:43;;;;;;;0.70;0.70;;;;;;;7.18;91.68;99759.53;6187992;23;20020;-82
2023/09/07 02:12:11;;;;;;;0.75;0.75;;;;;;;7.13;92.26;99762.84;6186664;23;20024;-82
2023/09/07 02:14:38;;;;;;;0.70;0.70;;;;;;;7.14;92.59;99764.47;6187963;23;20027;-82
2023/09/07 02:17:06;;;;;;;0.70;0.70;;;;;;;7.18;93.15;99770.28;6212576;23;20028;-82
2023/09/07 02:19:35;;;;;;;0.70;0.70;;;;;;;7.34;93.05;99777.94;6214414;23;20024;-80
2023/09/07 02:22:03;;;;;;;0.70;0.70;;;;;;;7.44;92.54;99773.00;6214305;23;20024;-83
2023/09/07 02:24:30;;;;;;;0.75;0.75;;;;;;;7.49;92.48;99769.69;6213096;23;20332;-81
2023/09/07 02:27:02;;;;;;;0.70;0.70;;;;;;;7.60;92.35;99774.47;6188191;23;20031;-83
2023/09/07 02:29:30;;;;;;;0.70;0.70;;;;;;;7.69;92.00;99767.00;6188055;23;20027;-82
2023/09/07 02:31:57;;;;;;;0.70;0.70;;;;;;;7.84;91.54;99775.69;6187918;23;20033;-82
2023/09/07 02:34:24;;;;;;;0.70;0.70;;;;;;;7.92;91.28;99775.47;6214066;23;20025;-83
2023/09/07 02:36:52;;;;;;;0.70;0.70;;;;;;;8.03;90.71;99779.41;6187587;23;20032;-83
2023/09/07 02:39:19;;;;;;;0.60;0.60;;;;;;;8.12;90.44;99778.13;6187542;23;20031;-82
2023/09/07 02:41:51;;;;;;;0.60;0.60;;;;;;;8.17;89.91;99778.31;6188371;23;20353;-82
2023/09/07 02:44:18;;;;;;;0.70;0.70;;;;;;;8.17;89.78;99775.63;6213581;23;20028;-82
2023/09/07 02:46:45;;;;;;;0.63;0.63;;;;;;;8.17;89.47;99777.50;6187391;23;20447;-83
2023/09/07 02:49:13;;;;;;;0.60;0.60;;;;;;;8.16;89.63;99786.63;6212686;23;20016;-82
2023/09/07 02:51:40;;;;;;;0.70;0.70;;;;;;;8.13;89.58;99789.75;6212635;23;20517;-83
2023/09/07 02:54:10;;;;;;;0.60;0.60;;;;;;;8.15;89.65;99795.69;6187162;23;20080;-83
2023/09/07 02:56:38;;;;;;;0.70;0.70;;;;;;;8.15;89.52;99796.56;6213444;23;20447;-83
2023/09/07 02:59:05;;;;;;;0.70;0.70;;;;;;;8.19;89.47;99796.94;6161935;23;20140;-83
2023/09/07 03:01:33;;;;;;;0.70;0.70;;;;;;;8.15;89.37;99801.94;6187205;23;20028;-82
2023/09/07 03:04:04;;;;;;;0.70;0.70;;;;;;;8.13;89.62;99801.31;6187441;23;20024;-83
2023/09/07 03:06:31;;;;;;;0.70;0.70;;;;;;;8.11;89.57;99802.56;6213624;23;20024;-82
2023/09/07 03:08:59;;;;;;;0.70;0.70;;;;;;;8.04;89.56;99795.31;6212191;23;20452;-83
2023/09/07 03:11:26;;;;;;;0.68;0.68;;;;;;;7.97;89.98;99805.22;6213238;23;20020;-82
2023/09/07 03:13:53;;;;;;;0.70;0.70;;;;;;;7.93;90.17;99804.00;6187363;23;20048;-81
2023/09/07 03:16:21;;;;;;;0.70;0.70;;;;;;;7.92;90.18;99804.22;6186581;23;20044;-82
2023/09/07 03:18:48;;;;;;;0.70;0.70;;;;;;;7.94;90.30;99808.34;6162408;23;20032;-84
2023/09/07 03:21:16;;;;;;;0.70;0.70;;;;;;;7.95;90.15;99810.00;6186925;23;20035;-83
2023/09/07 03:23:44;;;;;;;0.70;0.70;;;;;;;7.98;90.04;99809.59;6187034;23;20079;-82
2023/09/07 03:26:15;;;;;;;0.70;0.70;;;;;;;7.93;90.25;99814.75;6186785;23;20107;-83
2023/09/07 03:28:43;;;;;;;0.70;0.70;;;;;;;7.89;90.55;99820.75;6187131;23;20042;-82
2023/09/07 03:31:11;;;;;;;0.63;0.63;;;;;;;7.81;90.76;99814.56;6211186;23;20494;-82
2023/09/07 03:33:38;;;;;;;0.70;0.70;;;;;;;7.88;90.80;99825.31;6211784;23;20031;-83
2023/09/07 03:36:09;;;;;;;0.70;0.70;;;;;;;7.88;90.84;99833.38;6213216;23;20483;-83
2023/09/07 03:38:37;;;;;;;0.70;0.70;;;;;;;7.91;90.82;99824.06;6213374;23;20020;-82
2023/09/07 03:41:04;;;;;;;0.70;0.70;;;;;;;7.91;90.64;99830.25;6186116;23;20143;-83
2023/09/07 03:43:31;;;;;;;0.70;0.70;;;;;;;7.91;90.65;99832.97;6186543;23;20021;-82
2023/09/07 03:45:58;;;;;;;0.70;0.70;;;;;;;7.98;90.85;99843.72;6213273;23;20071;-83
2023/09/07 03:48:26;;;;;;;0.73;0.73;;;;;;;7.97;91.00;99839.34;6211964;23;20107;-81
2023/09/07 03:50:53;;;;;;;0.63;0.63;;;;;;;7.96;90.64;99835.84;6213282;23;20071;-83
2023/09/07 03:53:20;;;;;;;0.63;0.63;;;;;;;7.94;90.58;99837.09;6186672;23;20024;-81
2023/09/07 03:55:49;;;;;;;0.70;0.70;;;;;;;7.91;90.67;99835.66;6186191;23;20021;-82
2023/09/07 03:58:20;;;;;;;0.63;0.63;;;;;;;7.85;90.76;99822.19;6212675;23;20071;-82
2023/09/07 04:00:48;;;;;;;0.70;0.70;;;;;;;7.91;90.69;99837.50;6213577;23;20441;-83
2023/09/07 04:03:16;;;;;;;0.60;0.60;;;;;;;7.99;90.90;99851.56;6186074;23;20025;-82
2023/09/07 04:05:47;;;;;;;0.70;0.70;;;;;;;8.04;90.68;99845.56;6186122;23;20099;-82
2023/09/07 04:08:14;;;;;;;0.70;0.70;;;;;;;8.11;90.54;99854.47;6186072;23;20030;-82
2023/09/07 04:10:41;;;;;;;0.70;0.70;;;;;;;8.13;90.37;99849.72;6185916;23;20028;-82
2023/09/07 04:13:09;;;;;;;0.80;0.80;;;;;;;8.27;90.34;99861.25;6185954;23;20052;-82
2023/09/07 04:15:44;;;;;;;0.80;0.80;;;;;;;8.34;89.85;99866.66;6186077;23;20024;-82
2023/09/07 04:18:16;;;;;;;0.80;0.80;;;;;;;8.38;89.33;99868.72;6186343;23;20027;-82
2023/09/07 04:20:44;;;;;;;0.70;0.70;;;;;;;8.48;88.82;99875.53;6185134;23;20749;-82
2023/09/07 04:23:13;;;;;;;0.70;0.70;;;;;;;8.57;88.19;99883.19;6211934;23;20343;-81
2023/09/07 04:25:40;;;;;;;0.80;0.80;;;;;;;8.58;87.75;99879.47;6213632;23;20021;-83
2023/09/07 04:28:09;;;;;;;0.70;0.70;;;;;;;8.58;87.51;99878.63;6175646;23;20031;-83
2023/09/07 04:30:41;;;;;;;0.80;0.80;;;;;;;8.64;87.58;99885.88;6194942;23;20035;-83
2023/09/07 04:33:11;;;;;;;0.70;0.70;;;;;;;8.70;87.53;99882.34;6210837;23;20467;-82
2023/09/07 04:35:39;;;;;;;0.73;0.73;;;;;;;8.72;87.27;99874.88;6184680;23;20032;-81
2023/09/07 04:38:07;;;;;;;0.70;0.70;;;;;;;8.80;86.72;99884.59;6209327;23;20091;-83
2023/09/07 04:40:34;;;;;;;0.70;0.70;;;;;;;8.82;86.39;99886.03;6161214;23;20026;-83
2023/09/07 04:43:05;;;;;;;0.80;0.80;;;;;;;8.82;85.97;99886.03;6186202;23;20055;-84
2023/09/07 04:45:34;;;;;;;0.70;0.70;;;;;;;8.85;85.76;99882.09;6187196;23;20444;-85
2023/09/07 04:48:01;;;;;;;0.70;0.70;;;;;;;8.93;85.63;99884.53;6186082;23;20411;-85
2023/09/07 04:50:33;;;;;;;0.70;0.70;;;;;;;9.06;85.36;99891.75;6185520;23;20083;-86
2023/09/07 04:53:00;;;;;;;0.70;0.70;;;;;;;9.18;84.88;99900.00;6211121;23;20040;-86
2023/09/07 04:55:28;;;;;;;0.80;0.80;;;;;;;9.18;83.77;99894.59;6187355;23;20111;-85
2023/09/07 04:57:55;;;;;;;0.70;0.70;;;;;;;9.17;83.06;99896.47;6162090;23;20063;-86
2023/09/07 05:00:22;;;;;;;0.70;0.70;;;;;;;9.31;82.90;99899.94;6165029;23;20456;-86
2023/09/07 05:02:55;;;;;;;0.70;0.70;;;;;;;9.49;82.54;99908.13;6227510;23;20044;-84
2023/09/07 05:05:26;;;;;;;0.60;0.60;;;;;;;9.64;82.08;99899.75;6193800;23;20032;-86
2023/09/07 05:07:54;;;;;;;0.70;0.70;;;;;;;9.74;81.83;99899.28;6207999;23;20079;-86
2023/09/07 05:10:28;;;;;;;0.60;0.60;;;;;;;9.80;80.95;99897.56;6210879;23;20048;-84
2023/09/07 05:12:56;;;;;;;0.70;0.70;;;;;;;9.79;80.45;99904.03;6212394;23;20448;-86
2023/09/07 05:15:23;;;;;;;0.70;0.70;;;;;;;9.87;79.70;99903.75;6185760;23;20247;-84
2023/09/07 05:17:54;;;;;;;0.70;0.70;;;;;;;9.90;78.59;99893.38;6212633;23;20031;-84
2023/09/07 05:20:21;;;;;;;0.70;0.70;;;;;;;9.85;77.64;99898.59;6185703;23;20033;-84
2023/09/07 05:22:49;;;;;;;0.70;0.70;;;;;;;9.82;77.50;99917.06;6160983;23;20403;-84
2023/09/07 05:25:16;;;;;;;0.70;0.70;;;;;;;9.90;77.35;99904.16;6212471;23;20031;-85
2023/09/07 05:27:46;;;;;;;0.70;0.70;;;;;;;9.85;77.06;99908.53;6159976;23;20105;-83
2023/09/07 05:30:13;;;;;;;0.70;0.70;;;;;;;9.87;77.48;99909.16;6184345;23;20088;-83
2023/09/07 05:32:41;;;;;;;0.70;0.70;;;;;;;9.94;77.00;99912.63;6212410;23;20024;-82
2023/09/07 05:35:10;;;;;;;0.70;0.70;;;;;;;9.93;76.86;99911.81;6211044;23;20490;-83
2023/09/07 05:37:38;;;;;;;0.70;0.70;;;;;;;9.92;76.45;99903.94;6184898;23;20559;-86
2023/09/07 05:40:11;;;;;;;0.70;0.70;;;;;;;9.97;76.62;99920.28;6209415;23;20029;-84
2023/09/07 05:42:40;;;;;;;0.70;0.70;;;;;;;10.03;76.10;99911.34;6161671;23;20016;-84
2023/09/07 05:45:08;;;;;;;0.60;0.60;;;;;;;10.16;76.01;99913.09;6212217;23;20103;-84
2023/09/07 05:47:35;;;;;;;0.70;0.70;;;;;;;10.23;75.51;99918.44;6187297;23;20352;-83
2023/09/07 05:50:02;;;;;;;0.70;0.70;;;;;;;10.30;75.76;99921.94;6187453;23;20136;-84
2023/09/07 05:52:30;;;;;;;0.80;0.80;;;;;;;10.37;74.70;99923.53;6212885;23;20017;-83
2023/09/07 05:54:57;;;;;;;0.60;0.60;;;;;;;10.45;74.66;99924.31;6187432;23;20055;-83
2023/09/07 05:57:25;;;;;;;0.70;0.70;;;;;;;10.52;74.29;99923.19;6213334;23;20020;-82
2023/09/07 05:59:52;;;;;;;0.70;0.70;;;;;;;10.64;73.64;99923.31;6213938;23;20047;-83
2023/09/07 06:02:19;;;;;;;0.70;0.70;;;;;;;10.63;73.56;99921.63;6186407;23;20052;-83
2023/09/07 06:04:49;;;;;;;0.70;0.70;;;;;;;10.71;73.02;99925.91;6188066;23;20024;-84
2023/09/07 06:07:19;;;;;;;0.70;0.70;;;;;;;10.79;72.69;99934.56;6186712;23;20356;-85
2023/09/07 06:09:46;;;;;;;0.70;0.70;;;;;;;10.89;72.09;99930.50;6213647;23;20140;-83
2023/09/07 06:12:14;;;;;;;0.70;0.70;;;;;;;10.95;71.06;99930.44;6214669;23;20095;-89
2023/09/07 06:14:45;;;;;;;0.70;0.70;;;;;;;11.04;71.38;99925.59;6216575;23;20024;-85
2023/09/07 06:17:12;;;;;;;0.70;0.70;;;;;;;11.18;70.81;99932.47;6164071;23;20076;-86
2023/09/07 06:19:40;;;;;;;0.60;0.60;;;;;;;11.29;70.63;99936.28;6188134;23;20027;-86
2023/09/07 06:22:13;;;;;;;0.70;0.70;;;;;;;11.35;69.90;99930.00;6214154;23;20363;-86
2023/09/07 06:24:41;;;;;;;0.60;0.60;;;;;;;11.38;69.28;99937.66;6214593;23;20452;-84
2023/09/07 06:27:08;;;;;;;0.60;0.60;;;;;;;11.60;68.76;99948.81;6163077;23;20024;-85
2023/09/07 06:29:35;;;;;;;0.70;0.70;;;;;;;11.70;68.86;99938.28;6212433;23;20024;-83
2023/09/07 06:32:03;;;;;;;0.70;0.70;;;;;;;11.86;68.46;99950.34;6188014;23;20024;-85
2023/09/07 06:34:30;;;;;;;0.60;0.60;;;;;;;11.76;68.15;99957.34;6214863;23;20028;-86
2023/09/07 06:36:57;;;;;;;0.60;0.60;;;;;;;11.54;68.82;99949.69;6187835;23;20099;-84
2023/09/07 06:39:25;;;;;;;0.60;0.60;;;;;;;11.54;68.75;99949.69;6214851;23;20026;-85
2023/09/07 06:41:53;;;;;;;0.60;0.60;;;;;;;11.41;68.83;99948.00;6215138;23;20055;-86
2023/09/07 06:44:23;;;;;;;0.70;0.70;;;;;;;11.39;69.46;99955.50;6189308;23;20432;-85
2023/09/07 06:46:51;;;;;;;0.70;0.70;;;;;;;11.46;68.92;99955.44;6193318;23;20026;-87
2023/09/07 06:49:19;;;;;;;0.73;0.73;;;;;;;11.62;68.91;99957.53;6218993;23;20048;-87
2023/09/07 06:51:46;;;;;;;0.70;0.70;;;;;;;11.86;68.68;99952.19;6220853;23;20452;-88
2023/09/07 06:54:15;;;;;;;0.60;0.60;;;;;;;11.96;67.93;99955.19;6220365;23;20150;-88
2023/09/07 06:56:43;;;;;;;0.60;0.60;;;;;;;12.05;67.26;99959.25;6218235;23;20024;-87
2023/09/07 06:59:10;;;;;;;0.65;0.65;;;;;;;12.19;67.06;99954.44;6172021;23;20020;-87
2023/09/07 07:01:42;;;;;;;0.60;0.60;;;;;;;12.20;65.69;99960.66;6195272;23;20034;-86
2023/09/07 07:04:10;;;;;;;0.70;0.70;;;;;;;12.17;65.89;99961.16;6209571;23;20031;-87
2023/09/07 07:06:37;;;;;;;0.70;0.70;;;;;;;12.44;65.49;99951.53;6164970;23;20040;-87
2023/09/07 07:09:05;;;;;;;0.70;0.70;;;;;;;12.80;64.23;99952.38;6162226;23;20043;-85
2023/09/07 07:11:33;;;;;;;0.60;0.60;;;;;;;13.15;63.37;99960.47;6185362;23;20027;-87
2023/09/07 07:14:05;;;;;;;0.70;0.70;;;;;;;13.44;62.77;99960.56;6235635;23;20024;-87
2023/09/07 07:16:32;;;;;;;0.70;0.70;;;;;;;13.69;61.47;99954.00;6214033;23;20032;-87
2023/09/07 07:19:01;;;;;;;0.70;0.70;;;;;;;13.69;60.50;99959.44;6214258;23;20044;-87
2023/09/07 07:21:28;;;;;;;0.70;0.70;;;;;;;13.57;60.31;99964.88;6190515;23;20100;-87
2023/09/07 07:23:56;;;;;;;0.70;0.70;;;;;;;13.41;60.44;99970.00;6240599;23;20011;-88
2023/09/07 07:26:27;;;;;;;0.70;0.70;;;;;;;13.33;59.94;99978.50;6240288;23;20004;-86
2023/09/07 07:28:55;;;;;;;0.70;0.70;;;;;;;13.43;59.63;99981.44;6203892;23;20031;-87
2023/09/07 07:31:23;;;;;;;0.70;0.70;;;;;;;13.37;58.75;99971.56;6189779;23;20027;-86
2023/09/07 07:33:51;;;;;;;0.60;0.60;;;;;;;13.51;58.79;99977.53;6211727;23;20009;-87
2023/09/07 07:36:20;;;;;;;0.70;0.70;;;;;;;13.72;58.45;99977.94;6210824;23;20372;-87
2023/09/07 07:38:51;;;;;;;0.70;0.70;;;;;;;13.71;58.40;99971.69;6187398;23;20020;-88
2023/09/07 07:41:20;;;;;;;0.60;0.60;;;;;;;14.08;57.77;99976.72;6237880;23;20047;-88
2023/09/07 07:43:51;;;;;;;0.70;0.70;;;;;;;14.40;55.99;99985.16;6210661;23;20055;-88
2023/09/07 07:46:19;;;;;;;0.70;0.70;;;;;;;14.45;55.25;99977.09;6236048;23;20600;-87
2023/09/07 07:48:48;;;;;;;0.70;0.70;;;;;;;14.48;55.06;99971.19;6239573;23;20024;-86
2023/09/07 07:51:16;;;;;;;0.80;0.80;;;;;;;14.70;54.29;99981.31;6213578;23;20031;-86
2023/09/07 07:53:49;;;;;;;0.80;0.80;;;;;;;14.67;53.91;99969.06;6229061;23;20030;-86
2023/09/07 07:56:18;;;;;;;0.80;0.80;;;;;;;14.51;54.23;99975.31;6147338;23;20016;-84
2023/09/07 07:58:49;;;;;;;0.70;0.70;;;;;;;14.31;54.21;99976.59;6216607;23;20098;-85
2023/09/07 08:01:20;;;;;;;0.60;0.60;;;;;;;14.25;53.97;99965.88;6187765;23;20024;-82
2023/09/07 08:03:51;;;;;;;0.80;0.80;;;;;;;14.32;52.17;99961.94;6212789;23;20026;-84
2023/09/07 08:06:19;;;;;;;0.77;0.77;;;;;;;14.60;51.55;99973.00;6163598;23;20123;-85
2023/09/07 08:08:49;;;;;;;0.70;0.70;;;;;;;15.00;51.75;99961.13;6213814;23;20024;-84
2023/09/07 08:11:16;;;;;;;0.60;0.60;;;;;;;15.69;50.36;99969.63;6163594;23;20444;-84
2023/09/07 08:13:46;;;;;;;0.82;0.82;;;;;;;15.57;50.00;99960.75;6214182;23;20024;-86
2023/09/07 08:16:38;;;;;;;0.80;0.80;;;;;;;15.38;50.01;99961.09;6189795;23;20072;-88
2023/09/07 08:19:14;;;;;;;0.80;0.80;;;;;;;16.31;48.37;99949.31;6165885;23;20514;-85
2023/09/07 08:21:42;;;;;;;0.80;0.80;;;;;;;16.76;47.13;99956.19;6139949;23;20055;-88
2023/09/07 08:24:09;;;;;;;0.55;0.55;;;;;;;16.79;46.16;99933.91;6188762;23;20029;-88
2023/09/07 08:26:38;;;;;;;0.52;0.52;;;;;;;16.54;46.60;99948.13;6168670;23;20040;-87
2023/09/07 08:29:08;;;;;;;0.50;0.50;;;;;;;16.25;46.28;99950.31;6233810;23;20032;-85
2023/09/07 08:31:38;;;;;;;0.60;0.60;;;;;;;16.70;45.97;99957.22;6196410;23;20491;-87
2023/09/07 08:34:06;;;;;;;0.73;0.73;;;;;;;17.66;43.95;99961.56;6190197;23;20024;-89
2023/09/07 08:36:34;;;;;;;0.50;0.50;;;;;;;18.03;43.17;99963.34;6220658;22;20015;-89
2023/09/07 08:39:07;;;;;;;0.70;0.70;;;;;;;18.84;40.30;99946.16;6248396;23;20030;-88
2023/09/07 08:41:43;;;;;;;0.85;0.85;;;;;;;18.49;39.79;99927.84;6204722;23;20020;-88
2023/09/07 08:44:35;;;;;;;0.85;0.85;;;;;;;18.35;40.15;99954.09;6206201;23;20020;-91
2023/09/07 08:47:04;;;;;;;0.90;0.90;;;;;;;18.88;40.47;99951.06;6207770;23;20043;-90
2023/09/07 08:49:35;;;;;;;0.50;0.50;;;;;;;19.33;39.92;99950.13;6253727;23;20048;-90
2023/09/07 08:52:04;;;;;;;0.40;0.40;;;;;;;17.88;41.37;99941.47;6204984;23;20020;-90
2023/09/07 08:54:43;;;;;;;0.50;0.50;;;;;;;16.58;43.27;99949.22;6231449;23;20020;-87
2023/09/07 08:57:12;;;;;;;0.82;0.82;;;;;;;16.09;43.80;99957.53;6213591;23;20027;-89
2023/09/07 08:59:39;;;;;;;0.88;0.88;;;;;;;17.66;41.00;99953.38;6198668;23;20511;-90
2023/09/07 09:02:10;;;;;;;0.90;0.90;;;;;;;18.95;38.72;99940.66;6216438;23;20051;-85
2023/09/07 09:04:39;;;;;;;0.43;0.43;;;;;;;18.38;39.39;99946.19;6189367;23;20366;-89
2023/09/07 09:07:10;;;;;;;0.40;0.40;;;;;;;17.28;41.41;99936.31;6144237;23;20024;-87
2023/09/07 09:09:38;;;;;;;0.60;0.60;;;;;;;16.60;42.55;99957.97;6188153;23;20020;-87
2023/09/07 09:12:11;;;;;;;0.50;0.50;;;;;;;15.88;43.45;99953.81;6189412;23;20027;-89
2023/09/07 09:14:44;;;;;;;0.55;0.55;;;;;;;16.52;42.28;99939.38;6172217;23;20024;-89
2023/09/07 09:17:26;;;;;;;0.50;0.50;;;;;;;17.18;41.18;99941.75;6224031;23;20024;-85
2023/09/07 09:19:54;;;;;;;0.50;0.50;;;;;;;16.62;42.47;99944.91;6145994;23;20028;-88
2023/09/07 09:22:24;;;;;;;0.50;0.50;;;;;;;16.27;41.59;99952.81;6198492;23;20025;-89
2023/09/07 09:28:46;;;;;;;0.90;0.90;;;;;;;17.56;39.54;99945.16;6139300;23;20431;-88
2023/09/07 09:31:15;;;;;;;0.80;0.80;;;;;;;19.05;36.82;99941.47;6111177;23;20033;-86
2023/09/07 09:33:51;;;;;;;0.90;0.90;;;;;;;18.74;35.98;99934.41;6109933;23;20444;-88
2023/09/07 09:36:34;;;;;;;0.50;0.50;;;;;;;18.82;35.15;99928.41;6082378;23;20029;-86
2023/09/07 09:39:05;;;;;;;0.80;0.80;;;;;;;19.05;35.79;99946.13;6105262;23;20045;-83
2023/09/07 09:41:35;;;;;;;0.90;0.90;;;;;;;18.81;36.34;99946.72;6152011;23;20312;-85
2023/09/07 09:44:06;;;;;;;0.90;0.90;;;;;;;20.49;34.59;99933.28;6151509;23;20104;-83
2023/09/07 09:46:34;;;;;;;0.40;0.40;;;;;;;19.71;34.51;99945.06;6102632;23;20032;-83
2023/09/07 09:49:02;;;;;;;0.90;0.90;;;;;;;18.65;36.02;99941.50;6101845;23;20028;-85
2023/09/07 09:51:32;;;;;;;0.90;0.90;;;;;;;19.80;34.87;99932.41;6101309;23;20022;-84
2023/09/07 09:54:01;;;;;;;0.40;0.40;;;;;;;19.27;35.42;99932.91;6150429;23;20052;-84
2023/09/07 09:56:31;;;;;;;0.90;0.90;;;;;;;20.84;33.70;99934.06;6189021;23;20017;-84
2023/09/07 09:58:59;;;;;;;0.47;0.47;;;;;;;21.27;33.05;99933.31;6213579;23;20028;-84
2023/09/07 10:01:29;;;;;;;0.90;0.90;;;;;;;22.38;30.73;99941.13;6211250;23;20413;-80
2023/09/07 10:03:56;;;;;;;0.75;0.75;;;;;;;22.10;29.94;99929.16;6164140;23;20103;-84
2023/09/07 10:06:25;;;;;;;0.90;0.90;;;;;;;22.44;29.24;99931.69;6186904;23;20519;-82
2023/09/07 10:09:00;;;;;;;0.50;0.50;;;;;;;22.85;30.27;99949.41;6214539;23;20028;-84
2023/09/07 10:11:32;;;;;;;0.40;0.40;;;;;;;21.73;30.46;99924.53;6186540;23;20325;-83
2023/09/07 10:14:04;;;;;;;0.38;0.38;;;;;;;19.52;33.61;99938.53;6210971;23;20055;-85
2023/09/07 10:16:43;;;;;;;0.80;0.80;;;;;;;20.80;31.71;99932.19;6212466;23;20028;-85
2023/09/07 10:19:22;;;;;;;0.80;0.80;;;;;;;22.14;30.37;99927.47;6212478;23;20040;-84
2023/09/07 10:21:52;;;;;;;0.77;0.77;;;;;;;23.38;28.88;99931.63;6137491;23;20048;-82
2023/09/07 10:24:27;;;;;;;0.80;0.80;;;;;;;23.66;28.71;99938.72;6186643;23;20044;-84
2023/09/07 10:26:57;;;;;;;0.70;0.70;;;;;;;24.01;28.23;99933.56;6213613;23;20029;-83
2023/09/07 10:29:25;;;;;;;0.63;0.63;;;;;;;23.22;28.61;99925.59;6211615;23;20032;-83
2023/09/07 10:31:53;;;;;;;0.60;0.60;;;;;;;21.56;29.92;99917.59;6211785;23;20108;-83
2023/09/07 10:34:22;;;;;;;0.40;0.40;;;;;;;20.55;31.92;99918.44;6217681;23;20079;-81
2023/09/07 10:36:56;;;;;;;0.40;0.40;;;;;;;19.24;33.94;99922.53;6212204;23;20103;-82
2023/09/07 10:39:23;;;;;;;0.80;0.80;;;;;;;19.19;33.86;99929.91;6211804;23;20542;-83
2023/09/07 10:41:50;;;;;;;0.68;0.68;;;;;;;21.36;31.68;99909.59;6213270;23;20352;-82
2023/09/07 10:44:28;;;;;;;0.90;0.90;;;;;;;23.31;29.32;99919.06;6212363;23;20020;-83
2023/09/07 10:47:00;;;;;;;0.90;0.90;;;;;;;25.48;26.20;99914.25;6213145;23;20020;-83
2023/09/07 10:49:27;;;;;;;0.30;0.30;;;;;;;23.55;28.10;99923.56;6212117;23;20027;-83
2023/09/07 10:51:55;;;;;;;0.30;0.30;;;;;;;21.62;30.78;99921.94;6212312;23;20025;-83
2023/09/07 10:54:24;;;;;;;0.40;0.40;;;;;;;20.52;31.95;99921.72;6212590;23;20119;-83
2023/09/07 10:56:58;;;;;;;0.88;0.88;;;;;;;21.49;31.35;99917.13;6165119;23;20047;-84
2023/09/07 10:59:28;;;;;;;0.68;0.68;;;;;;;20.67;30.77;99914.50;6211582;23;20024;-82
2023/09/07 11:02:07;;;;;;;0.80;0.80;;;;;;;20.65;31.22;99925.75;6185913;23;20031;-83
2023/09/07 11:04:35;;;;;;;0.40;0.40;;;;;;;19.88;32.50;99920.84;6212293;23;20032;-83
2023/09/07 11:07:04;;;;;;;0.40;0.40;;;;;;;19.33;33.32;99920.03;6211961;23;20078;-83
2023/09/07 11:09:31;;;;;;;0.40;0.40;;;;;;;19.35;32.91;99917.81;6185951;23;20099;-82
2023/09/07 11:12:05;;;;;;;0.90;0.90;;;;;;;21.06;31.39;99914.34;6186589;23;20021;-83
2023/09/07 11:14:33;;;;;;;0.50;0.50;;;;;;;23.07;28.90;99918.47;6211953;23;20028;-81
2023/09/07 11:17:03;;;;;;;0.40;0.40;;;;;;;21.37;30.34;99908.47;6212941;23;20519;-82
2023/09/07 11:19:34;;;;;;;0.40;0.40;;;;;;;21.80;29.34;99930.44;6212419;23;20045;-82
2023/09/07 11:22:04;;;;;;;0.40;0.40;;;;;;;20.94;30.82;99924.91;6162001;23;20098;-82
2023/09/07 11:24:35;;;;;;;0.40;0.40;;;;;;;19.61;32.24;99923.19;6192753;23;20028;-83
2023/09/07 11:27:03;;;;;;;0.40;0.40;;;;;;;18.67;34.02;99918.28;6181048;23;20055;-82
2023/09/07 11:29:32;;;;;;;0.90;0.90;;;;;;;20.39;31.75;99921.59;6165394;23;20108;-82
2023/09/07 11:32:10;;;;;;;0.40;0.40;;;;;;;20.54;31.80;99927.78;6212677;23;20048;-83
2023/09/07 11:35:07;;;;;;;0.90;0.90;;;;;;;22.76;29.59;99921.75;6212211;23;20024;-82
2023/09/07 11:37:35;;;;;;;0.88;0.88;;;;;;;24.62;27.99;99915.53;6211775;23;20537;-82
2023/09/07 11:40:04;;;;;;;0.80;0.80;;;;;;;25.85;25.16;99903.78;6212361;23;20024;-83
2023/09/07 11:42:32;;;;;;;0.90;0.90;;;;;;;25.46;25.20;99911.00;6213292;23;20020;-83
2023/09/07 11:45:01;;;;;;;0.30;0.30;;;;;;;22.81;27.41;99909.84;6213641;23;20363;-82
2023/09/07 11:47:30;;;;;;;0.80;0.80;;;;;;;22.42;28.80;99913.84;6212808;23;20047;-82
2023/09/07 11:49:57;;;;;;;0.80;0.80;;;;;;;24.43;26.45;99909.34;6212073;23;20048;-83
2023/09/07 11:52:24;;;;;;;0.70;0.70;;;;;;;24.55;25.62;99911.56;6212622;23;20021;-83
2023/09/07 11:54:52;;;;;;;0.70;0.70;;;;;;;24.77;24.77;99903.25;6214141;23;20364;-87